createdAt,value
2023-03-01T00:01:49.453Z,20.75
2023-03-01T00:04:17.869Z,20.23
2023-03-01T00:06:47.052Z,22.02
2023-03-01T00:09:15.489Z,18.80
2023-03-01T00:11:44.164Z,20.20
2023-03-01T00:14:12.547Z,20.92
2023-03-01T00:16:44.621Z,20.60
2023-03-01T00:19:16.596Z,19.75
2023-03-01T00:21:45.287Z,22.90
2023-03-01T00:24:13.635Z,20.45
2023-03-01T00:26:42.394Z,22.83
2023-03-01T00:29:10.658Z,24.25
2023-03-01T00:31:38.986Z,24.92
2023-03-01T00:34:08.997Z,20.02
2023-03-01T00:36:39.662Z,20.85
2023-03-01T00:39:13.846Z,24.80
2023-03-01T00:41:42.606Z,20.13
2023-03-01T00:44:11.427Z,21.95
2023-03-01T00:46:40.382Z,22.23
2023-03-01T00:49:10.277Z,22.08
2023-03-01T00:51:40.304Z,25.17
2023-03-01T00:54:10.106Z,22.63
2023-03-01T00:56:38.641Z,21.45
2023-03-01T00:59:06.921Z,22.88
2023-03-01T01:01:35.295Z,26.05
2023-03-01T01:04:06.388Z,22.53
2023-03-01T01:06:39.509Z,23.67
2023-03-01T01:09:09.278Z,29.02
2023-03-01T01:11:38.203Z,23.60
2023-03-01T01:14:06.847Z,27.73
2023-03-01T01:16:35.478Z,24.90
2023-03-01T01:19:04.205Z,26.55
2023-03-01T01:21:33.126Z,30.75
2023-03-01T01:24:04.988Z,24.85
2023-03-01T01:26:36.312Z,29.40
2023-03-01T01:29:07.082Z,28.13
2023-03-01T01:31:36.970Z,25.92
2023-03-01T01:34:09.807Z,27.20
2023-03-01T01:36:38.466Z,27.17
2023-03-01T01:39:08.366Z,28.73
2023-03-01T01:41:36.648Z,28.08
2023-03-01T01:44:20.984Z,29.52
2023-03-01T01:46:53.694Z,28.45
2023-03-01T01:49:29.200Z,30.98
2023-03-01T01:52:07.156Z,29.73
2023-03-01T01:54:44.460Z,31.00
2023-03-01T01:57:18.596Z,30.20
2023-03-01T01:59:51.178Z,32.03
2023-03-01T02:02:20.301Z,35.45
2023-03-01T02:04:50.194Z,31.90
2023-03-01T02:07:21.980Z,32.47
2023-03-01T02:09:54.318Z,36.22
2023-03-01T02:12:26.367Z,32.03
2023-03-01T02:14:54.791Z,33.45
2023-03-01T02:17:23.985Z,33.75
2023-03-01T02:20:08.124Z,35.33
2023-03-01T02:22:39.325Z,32.50
2023-03-01T02:25:26.517Z,38.40
2023-03-01T02:28:01.036Z,34.67
2023-03-01T02:30:32.029Z,32.07
2023-03-01T02:33:03.895Z,30.23
2023-03-01T02:35:36.435Z,31.97
2023-03-01T02:38:06.117Z,33.20
2023-03-01T02:40:37.862Z,32.30
2023-03-01T02:43:10.597Z,35.20
2023-03-01T02:45:50.085Z,33.43
2023-03-01T02:48:18.673Z,33.80
2023-03-01T02:51:05.681Z,31.27
2023-03-01T02:53:44.121Z,33.07
2023-03-01T02:56:13.989Z,34.45
2023-03-01T02:58:46.717Z,33.28
2023-03-01T03:01:17.405Z,36.90
2023-03-01T03:03:46.006Z,34.47
2023-03-01T03:06:15.658Z,37.57
2023-03-01T03:08:45.008Z,34.63
2023-03-01T03:11:13.364Z,37.00
2023-03-01T03:13:48.987Z,35.40
2023-03-01T03:16:19.283Z,36.50
2023-03-01T03:18:47.737Z,40.85
2023-03-01T03:21:17.266Z,35.35
2023-03-01T03:23:45.995Z,37.27
2023-03-01T03:26:16.048Z,38.38
2023-03-01T03:28:44.561Z,36.40
2023-03-01T03:31:12.972Z,40.17
2023-03-01T03:33:42.753Z,38.50
2023-03-01T03:36:13.849Z,35.03
2023-03-01T03:38:42.688Z,38.30
2023-03-01T03:41:10.997Z,40.47
2023-03-01T03:43:43.536Z,39.63
2023-03-01T03:46:13.342Z,37.10
2023-03-01T03:48:45.977Z,38.60
2023-03-01T03:51:16.875Z,37.73
2023-03-01T03:53:46.406Z,41.60
2023-03-01T03:56:15.201Z,38.80
2023-03-01T03:58:43.476Z,40.37
2023-03-01T04:01:11.893Z,40.10
2023-03-01T04:03:40.433Z,39.17
2023-03-01T04:06:10.160Z,42.07
2023-03-01T04:08:38.521Z,38.33
2023-03-01T04:11:21.552Z,43.00
2023-03-01T04:13:50.254Z,39.63
2023-03-01T04:16:18.866Z,41.57
2023-03-01T04:18:47.549Z,41.07
2023-03-01T04:21:17.390Z,42.00
2023-03-01T04:23:45.949Z,40.83
2023-03-01T04:26:14.665Z,43.70
2023-03-01T04:28:47.088Z,43.97
2023-03-01T04:31:19.326Z,40.83
2023-03-01T04:33:52.439Z,45.13
2023-03-01T04:36:26.175Z,41.80
2023-03-01T04:38:55.000Z,45.00
2023-03-01T04:41:25.672Z,41.37
2023-03-01T04:43:54.187Z,44.03
2023-03-01T04:46:23.779Z,44.07
2023-03-01T04:48:52.295Z,43.95
2023-03-01T04:51:21.948Z,39.80
2023-03-01T04:53:50.340Z,38.80
2023-03-01T04:56:19.834Z,33.73
2023-03-01T04:58:48.942Z,33.50
2023-03-01T05:01:21.581Z,28.90
2023-03-01T05:03:52.627Z,30.37
2023-03-01T05:06:23.505Z,31.63
2023-03-01T05:08:51.916Z,31.90
2023-03-01T05:11:20.245Z,29.37
2023-03-01T05:13:48.910Z,27.30
2023-03-01T05:16:17.972Z,31.50
2023-03-01T05:18:47.048Z,30.67
2023-03-01T05:21:17.962Z,29.23
2023-03-01T05:23:48.051Z,33.00
2023-03-01T05:26:39.675Z,32.25
2023-03-01T05:29:09.568Z,34.07
2023-03-01T05:31:39.115Z,38.85
2023-03-01T05:34:07.452Z,36.65
2023-03-01T05:36:36.168Z,33.70
2023-03-01T05:39:05.956Z,33.47
2023-03-01T05:41:34.338Z,35.00
2023-03-01T05:44:05.836Z,33.87
2023-03-01T05:46:34.202Z,34.42
2023-03-01T05:49:03.444Z,36.60
2023-03-01T05:51:31.942Z,28.63
2023-03-01T05:54:00.180Z,27.10
2023-03-01T05:56:30.375Z,30.80
2023-03-01T05:58:58.957Z,26.17
2023-03-01T06:01:27.326Z,28.53
2023-03-01T06:03:55.729Z,25.83
2023-03-01T06:06:24.915Z,25.77
2023-03-01T06:08:54.087Z,25.50
2023-03-01T06:11:22.915Z,23.93
2023-03-01T06:13:52.578Z,24.73
2023-03-01T06:16:20.952Z,30.85
2023-03-01T06:18:49.217Z,27.57
2023-03-01T06:21:17.690Z,23.63
2023-03-01T06:23:45.964Z,21.73
2023-03-01T06:26:14.250Z,20.57
2023-03-01T06:28:42.541Z,21.97
2023-03-01T06:31:12.269Z,23.47
2023-03-01T06:33:40.745Z,22.58
2023-03-01T06:36:11.010Z,23.67
2023-03-01T06:38:41.610Z,23.88
2023-03-01T06:41:10.074Z,23.60
2023-03-01T06:43:38.487Z,23.67
2023-03-01T06:46:08.240Z,23.83
2023-03-01T06:48:38.678Z,24.13
2023-03-01T06:51:07.332Z,24.13
2023-03-01T06:53:36.383Z,24.00
2023-03-01T06:56:05.303Z,22.83
2023-03-01T06:58:33.721Z,23.50
2023-03-01T07:01:02.197Z,21.73
2023-03-01T07:06:00.052Z,22.30
2023-03-01T07:08:28.486Z,22.80
2023-03-01T07:11:00.017Z,22.37
2023-03-01T07:13:28.347Z,22.83
2023-03-01T07:15:56.811Z,22.47
2023-03-01T07:18:25.396Z,20.63
2023-03-01T07:20:53.660Z,19.50
2023-03-01T07:23:23.486Z,19.70
2023-03-01T07:25:55.210Z,18.85
2023-03-01T07:28:25.199Z,18.83
2023-03-01T07:30:53.558Z,18.95
2023-03-01T07:33:22.109Z,19.63
2023-03-01T07:35:50.611Z,19.87
2023-03-01T07:38:18.967Z,20.13
2023-03-01T07:40:48.860Z,19.17
2023-03-01T07:43:17.113Z,20.25
2023-03-01T07:45:46.033Z,20.45
2023-03-01T07:48:14.349Z,18.67
2023-03-01T07:50:42.616Z,19.40
2023-03-01T07:53:12.068Z,20.77
2023-03-01T07:55:40.439Z,22.08
2023-03-01T07:58:10.061Z,23.88
2023-03-01T08:00:38.567Z,24.27
2023-03-01T08:03:07.104Z,22.85
2023-03-01T08:05:35.530Z,24.73
2023-03-01T08:08:03.874Z,25.30
2023-03-01T08:10:32.249Z,27.35
2023-03-01T08:13:00.531Z,28.17
2023-03-01T08:15:30.319Z,28.08
2023-03-01T08:17:58.768Z,27.13
2023-03-01T08:20:27.088Z,26.25
2023-03-01T08:22:55.357Z,25.52
2023-03-01T08:25:23.748Z,22.33
2023-03-01T08:27:52.150Z,22.38
2023-03-01T08:30:21.474Z,20.83
2023-03-01T08:32:51.226Z,19.92
2023-03-01T08:35:20.925Z,20.90
2023-03-01T08:37:49.594Z,18.13
2023-03-01T08:40:18.278Z,19.20
2023-03-01T08:42:46.835Z,18.95
2023-03-01T08:45:19.182Z,17.65
2023-03-01T08:47:47.749Z,17.75
2023-03-01T08:50:18.098Z,19.45
2023-03-01T08:52:46.432Z,21.80
2023-03-01T08:55:16.032Z,19.38
2023-03-01T08:57:44.605Z,19.85
2023-03-01T09:00:15.938Z,20.70
2023-03-01T09:02:44.539Z,22.73
2023-03-01T09:05:12.887Z,21.23
2023-03-01T09:07:42.574Z,21.70
2023-03-01T09:10:12.776Z,19.92
2023-03-01T09:12:41.135Z,19.60
2023-03-01T09:15:11.407Z,21.42
2023-03-01T09:17:39.774Z,18.17
2023-03-01T09:20:09.241Z,18.33
2023-03-01T09:22:37.652Z,18.52
2023-03-01T09:25:08.771Z,17.77
2023-03-01T09:27:37.193Z,17.25
2023-03-01T09:30:07.077Z,16.50
2023-03-01T09:32:35.645Z,16.20
2023-03-01T09:35:05.886Z,18.08
2023-03-01T09:37:35.745Z,12.43
2023-03-01T09:40:05.493Z,15.20
2023-03-01T09:42:37.935Z,12.17
2023-03-01T09:45:09.282Z,11.93
2023-03-01T09:47:38.941Z,11.90
2023-03-01T09:50:13.619Z,14.50
2023-03-01T09:52:45.003Z,12.48
2023-03-01T09:55:17.076Z,13.43
2023-03-01T09:57:52.977Z,14.05
2023-03-01T10:00:36.969Z,14.00
2023-03-01T10:03:17.109Z,13.20
2023-03-01T10:05:55.038Z,12.48
2023-03-01T10:08:38.683Z,12.57
2023-03-01T10:11:21.333Z,12.15
2023-03-01T10:14:00.733Z,14.77
2023-03-01T10:16:44.145Z,12.38
2023-03-01T10:19:19.803Z,11.73
2023-03-01T10:21:48.644Z,12.82
2023-03-01T10:24:22.507Z,12.82
2023-03-01T10:26:58.423Z,13.98
2023-03-01T10:29:34.211Z,11.93
2023-03-01T10:32:03.053Z,10.57
2023-03-01T10:34:35.596Z,14.98
2023-03-01T10:37:13.889Z,12.32
2023-03-01T10:40:06.692Z,12.02
2023-03-01T10:42:38.503Z,10.35
2023-03-01T10:45:40.073Z,9.95
2023-03-01T10:48:17.294Z,11.35
2023-03-01T10:50:48.133Z,10.65
2023-03-01T10:53:30.100Z,10.85
2023-03-01T10:56:06.297Z,10.98
2023-03-01T10:58:36.624Z,13.43
2023-03-01T11:01:08.639Z,10.10
2023-03-01T11:03:39.461Z,11.63
2023-03-01T11:06:24.152Z,10.43
2023-03-01T11:08:53.910Z,11.25
2023-03-01T11:11:33.477Z,11.17
2023-03-01T11:14:19.452Z,11.53
2023-03-01T11:17:04.081Z,12.68
2023-03-01T11:19:32.661Z,12.55
2023-03-01T11:22:06.359Z,13.38
2023-03-01T11:24:43.192Z,11.68
2023-03-01T11:27:21.065Z,14.57
2023-03-01T11:29:54.825Z,15.15
2023-03-01T11:32:30.746Z,12.70
2023-03-01T11:35:03.985Z,12.73
2023-03-01T11:37:40.533Z,14.85
2023-03-01T11:40:17.746Z,12.57
2023-03-01T11:43:03.025Z,14.93
2023-03-01T11:45:43.400Z,12.77
2023-03-01T11:48:49.736Z,12.88
2023-03-01T11:51:27.307Z,14.13
2023-03-01T11:54:16.455Z,12.88
2023-03-01T11:56:51.391Z,15.20
2023-03-01T11:59:49.562Z,17.30
2023-03-01T12:02:58.848Z,14.13
2023-03-01T12:06:04.628Z,15.82
2023-03-01T12:08:38.773Z,20.63
2023-03-01T12:11:24.460Z,15.15
2023-03-01T12:14:33.242Z,18.70
2023-03-01T12:17:24.305Z,17.65
2023-03-01T12:20:23.619Z,16.25
2023-03-01T12:23:24.622Z,19.15
2023-03-01T12:29:04.460Z,21.63
2023-03-01T12:32:12.446Z,16.58
2023-03-01T12:35:08.505Z,19.25
2023-03-01T12:37:58.236Z,18.67
2023-03-01T12:40:50.621Z,19.27
2023-03-01T12:43:30.956Z,19.88
2023-03-01T12:46:30.857Z,19.27
2023-03-01T12:49:11.179Z,21.10
2023-03-01T12:51:42.302Z,19.00
2023-03-01T12:54:24.408Z,19.38
2023-03-01T12:56:54.193Z,18.30
2023-03-01T12:59:31.003Z,21.23
2023-03-01T13:02:11.335Z,25.23
2023-03-01T13:04:59.627Z,19.13
2023-03-01T13:07:33.442Z,21.88
2023-03-01T13:10:20.242Z,22.00
2023-03-01T13:12:55.464Z,19.85
2023-03-01T13:15:34.795Z,16.17
2023-03-01T13:18:06.250Z,18.92
2023-03-01T13:20:48.151Z,17.20
2023-03-01T13:23:28.902Z,16.98
2023-03-01T13:28:53.858Z,17.95
2023-03-01T13:32:05.966Z,15.07
2023-03-01T13:35:02.593Z,14.90
2023-03-01T13:37:40.538Z,16.00
2023-03-01T13:41:01.389Z,17.13
2023-03-01T13:43:37.249Z,15.63
2023-03-01T13:46:19.406Z,13.20
2023-03-01T13:48:53.976Z,13.13
2023-03-01T13:51:27.775Z,14.30
2023-03-01T13:53:58.541Z,15.68
2023-03-01T13:56:30.245Z,13.48
2023-03-01T13:59:04.256Z,15.13
2023-03-01T14:01:36.263Z,13.10
2023-03-01T14:04:21.153Z,13.98
2023-03-01T14:06:50.202Z,13.57
2023-03-01T14:09:22.576Z,12.27
2023-03-01T14:12:15.858Z,13.38
2023-03-01T14:14:51.165Z,11.10
2023-03-01T14:17:51.835Z,11.68
2023-03-01T14:20:23.253Z,12.35
2023-03-01T14:22:54.963Z,11.48
2023-03-01T14:25:28.427Z,11.55
2023-03-01T14:28:07.026Z,14.30
2023-03-01T14:30:41.243Z,13.95
2023-03-01T14:33:23.958Z,12.70
2023-03-01T14:35:59.237Z,12.52
2023-03-01T14:38:35.722Z,10.77
2023-03-01T14:41:08.639Z,10.82
2023-03-01T14:43:39.630Z,12.90
2023-03-01T14:46:23.201Z,14.65
2023-03-01T14:48:53.745Z,12.20
2023-03-01T14:51:22.658Z,11.00
2023-03-01T14:53:51.718Z,15.02
2023-03-01T14:56:20.684Z,12.18
2023-03-01T14:58:53.750Z,14.68
2023-03-01T15:01:24.196Z,12.45
2023-03-01T15:06:24.992Z,14.07
2023-03-01T15:08:57.820Z,14.18
2023-03-01T15:11:31.320Z,13.00
2023-03-01T15:14:00.846Z,11.95
2023-03-01T15:16:33.284Z,12.43
2023-03-01T15:19:04.661Z,16.45
2023-03-01T15:21:36.013Z,13.80
2023-03-01T15:24:12.682Z,12.38
2023-03-01T15:26:45.188Z,12.98
2023-03-01T15:29:20.176Z,16.50
2023-03-01T15:32:00.389Z,11.85
2023-03-01T15:34:31.474Z,14.48
2023-03-01T15:37:01.817Z,14.73
2023-03-01T15:39:38.365Z,11.27
2023-03-01T15:42:11.057Z,12.43
2023-03-01T15:44:44.355Z,13.20
2023-03-01T15:47:30.744Z,11.93
2023-03-01T15:50:02.409Z,11.88
2023-03-01T15:52:40.184Z,14.40
2023-03-01T15:55:20.964Z,12.13
2023-03-01T15:57:50.336Z,13.65
2023-03-01T16:00:20.116Z,13.57
2023-03-01T16:02:49.869Z,12.10
2023-03-01T16:05:24.459Z,11.93
2023-03-01T16:07:53.308Z,11.63
2023-03-01T16:10:22.148Z,11.23
2023-03-01T16:12:52.103Z,11.65
2023-03-01T16:15:25.032Z,11.93
2023-03-01T16:17:55.249Z,11.05
2023-03-01T16:20:29.137Z,13.00
2023-03-01T16:23:02.079Z,11.90
2023-03-01T16:25:31.692Z,18.05
2023-03-01T16:28:01.832Z,10.93
2023-03-01T16:30:30.209Z,13.38
2023-03-01T16:33:00.458Z,13.23
2023-03-01T16:35:30.196Z,13.70
2023-03-01T16:37:58.755Z,12.20
2023-03-01T16:40:30.007Z,12.85
2023-03-01T16:43:02.158Z,10.88
2023-03-01T16:45:36.168Z,11.90
2023-03-01T16:48:07.124Z,12.52
2023-03-01T16:50:35.547Z,12.77
2023-03-01T16:53:03.854Z,13.55
2023-03-01T16:55:32.262Z,16.38
2023-03-01T16:58:00.853Z,15.23
2023-03-01T17:00:29.235Z,14.15
2023-03-01T17:02:57.639Z,19.63
2023-03-01T17:05:27.498Z,13.73
2023-03-01T17:07:57.183Z,17.53
2023-03-01T17:10:25.577Z,14.37
2023-03-01T17:12:54.422Z,16.85
2023-03-01T17:15:22.811Z,13.98
2023-03-01T17:17:52.015Z,14.50
2023-03-01T17:20:21.227Z,13.63
2023-03-01T17:22:52.500Z,14.02
2023-03-01T17:25:21.163Z,16.80
2023-03-01T17:27:49.577Z,14.02
2023-03-01T17:30:18.883Z,13.35
2023-03-01T17:32:47.408Z,13.15
2023-03-01T17:35:15.894Z,15.38
2023-03-01T17:37:46.610Z,14.52
2023-03-01T17:40:16.604Z,14.43
2023-03-01T17:42:44.917Z,13.63
2023-03-01T17:45:13.675Z,20.63
2023-03-01T17:47:42.026Z,16.33
2023-03-01T17:50:12.459Z,12.63
2023-03-01T17:52:41.296Z,13.02
2023-03-01T17:55:11.258Z,13.73
2023-03-01T17:57:41.932Z,16.48
2023-03-01T18:02:43.538Z,15.80
2023-03-01T18:05:12.750Z,15.82
2023-03-01T18:07:41.167Z,14.73
2023-03-01T18:10:11.110Z,13.77
2023-03-01T18:12:41.004Z,13.60
2023-03-01T18:15:11.029Z,15.43
2023-03-01T18:17:39.686Z,14.32
2023-03-01T18:20:09.870Z,14.80
2023-03-01T18:22:38.408Z,17.45
2023-03-01T18:25:08.074Z,16.73
2023-03-01T18:27:37.023Z,14.70
2023-03-01T18:30:09.657Z,15.07
2023-03-01T18:32:39.599Z,14.68
2023-03-01T18:35:09.680Z,17.80
2023-03-01T18:37:38.488Z,15.38
2023-03-01T18:40:09.192Z,17.65
2023-03-01T18:45:09.210Z,16.33
2023-03-01T18:47:37.636Z,14.82
2023-03-01T18:50:07.594Z,14.55
2023-03-01T18:52:36.030Z,16.75
2023-03-01T18:55:04.605Z,15.98
2023-03-01T18:57:33.025Z,16.33
2023-03-01T19:00:01.326Z,14.98
2023-03-01T19:02:31.172Z,15.25
2023-03-01T19:04:59.585Z,17.67
2023-03-01T19:07:27.958Z,15.50
2023-03-01T19:09:56.360Z,18.50
2023-03-01T19:12:24.812Z,15.15
2023-03-01T19:14:53.274Z,16.80
2023-03-01T19:17:24.704Z,19.98
2023-03-01T19:19:54.765Z,18.05
2023-03-01T19:22:23.188Z,18.83
2023-03-01T19:24:51.933Z,17.52
2023-03-01T19:27:20.391Z,16.73
2023-03-01T19:29:48.829Z,17.73
2023-03-01T19:32:17.248Z,17.67
2023-03-01T19:34:46.805Z,19.58
2023-03-01T19:37:16.543Z,17.65
2023-03-01T19:39:45.445Z,16.97
2023-03-01T19:42:13.862Z,14.80
2023-03-01T19:44:42.179Z,17.30
2023-03-01T19:47:10.507Z,17.00
2023-03-01T19:49:38.935Z,17.23
2023-03-01T19:52:07.308Z,18.02
2023-03-01T19:54:37.027Z,20.33
2023-03-01T19:57:05.896Z,18.70
2023-03-01T19:59:34.307Z,19.95
2023-03-01T20:02:03.864Z,19.38
2023-03-01T20:04:32.258Z,17.88
2023-03-01T20:07:00.719Z,16.88
2023-03-01T20:09:29.108Z,17.20
2023-03-01T20:11:58.913Z,22.38
2023-03-01T20:14:27.403Z,19.50
2023-03-01T20:16:55.846Z,19.27
2023-03-01T20:19:24.274Z,18.95
2023-03-01T20:21:52.610Z,18.20
2023-03-01T20:24:21.033Z,18.77
2023-03-01T20:26:49.527Z,17.98
2023-03-01T20:29:19.895Z,19.85
2023-03-01T20:31:48.401Z,20.42
2023-03-01T20:34:17.211Z,24.55
2023-03-01T20:36:45.647Z,23.92
2023-03-01T20:39:14.205Z,18.02
2023-03-01T20:41:42.769Z,20.77
2023-03-01T20:44:11.270Z,21.40
2023-03-01T20:46:41.288Z,26.08
2023-03-01T20:49:10.693Z,26.98
2023-03-01T20:51:39.116Z,24.83
2023-03-01T20:54:07.516Z,23.48
2023-03-01T20:56:36.060Z,24.08
2023-03-01T20:59:05.606Z,22.80
2023-03-01T21:01:34.166Z,25.85
2023-03-01T21:04:04.393Z,26.60
2023-03-01T21:06:33.363Z,21.35
2023-03-01T21:09:02.019Z,21.48
2023-03-01T21:11:30.467Z,21.05
2023-03-01T21:13:59.282Z,20.92
2023-03-01T21:16:28.018Z,22.75
2023-03-01T21:18:56.302Z,18.55
2023-03-01T21:21:26.040Z,21.33
2023-03-01T21:23:55.807Z,20.15
2023-03-01T21:26:26.551Z,21.20
2023-03-01T21:28:58.992Z,24.27
2023-03-01T21:31:31.983Z,22.13
2023-03-01T21:34:04.131Z,23.23
2023-03-01T21:36:35.172Z,23.52
2023-03-01T21:39:05.304Z,24.48
2023-03-01T21:41:36.829Z,24.55
2023-03-01T21:44:07.363Z,27.90
2023-03-01T21:46:38.403Z,26.05
2023-03-01T21:49:08.761Z,26.05
2023-03-01T21:51:38.896Z,25.65
2023-03-01T21:54:08.234Z,25.65
2023-03-01T21:56:39.179Z,24.67
2023-03-01T21:59:10.090Z,25.45
2023-03-01T22:01:38.658Z,29.13
2023-03-01T22:04:07.054Z,25.33
2023-03-01T22:06:40.724Z,25.30
2023-03-01T22:09:13.996Z,26.15
2023-03-01T22:11:46.712Z,24.95
2023-03-01T22:14:16.132Z,26.23
2023-03-01T22:16:46.928Z,27.25
2023-03-01T22:19:16.952Z,23.77
2023-03-01T22:21:50.100Z,27.00
2023-03-01T22:24:20.964Z,25.08
2023-03-01T22:26:50.896Z,23.60
2023-03-01T22:29:22.654Z,22.92
2023-03-01T22:31:52.062Z,23.08
2023-03-01T22:34:21.047Z,23.92
2023-03-01T22:36:51.402Z,25.83
2023-03-01T22:39:22.384Z,25.25
2023-03-01T22:41:51.362Z,22.63
2023-03-01T22:44:22.892Z,24.33
2023-03-01T22:46:52.303Z,25.90
2023-03-01T22:49:21.272Z,22.48
2023-03-01T22:51:51.659Z,22.13
2023-03-01T22:54:20.865Z,21.85
2023-03-01T22:56:49.979Z,23.42
2023-03-01T22:59:22.570Z,21.13
2023-03-01T23:01:52.025Z,21.98
2023-03-01T23:04:22.017Z,23.13
2023-03-01T23:06:53.964Z,22.52
2023-03-01T23:09:26.448Z,24.55
2023-03-01T23:11:56.236Z,19.60
2023-03-01T23:14:25.119Z,23.92
2023-03-01T23:16:54.459Z,22.80
2023-03-01T23:19:23.740Z,21.73
2023-03-01T23:21:54.465Z,22.52
2023-03-01T23:24:25.713Z,22.80
2023-03-01T23:26:54.233Z,22.65
2023-03-01T23:29:23.209Z,22.48
2023-03-01T23:31:51.562Z,24.25
2023-03-01T23:34:20.095Z,23.05
2023-03-01T23:36:48.685Z,24.10
2023-03-01T23:39:18.437Z,25.85
2023-03-01T23:41:46.938Z,26.80
2023-03-01T23:44:18.172Z,27.35
2023-03-01T23:46:47.861Z,26.02
2023-03-01T23:49:19.368Z,26.00
2023-03-01T23:51:48.744Z,32.97
2023-03-01T23:54:20.869Z,31.55
2023-03-01T23:56:49.546Z,29.90
2023-03-01T23:59:20.261Z,30.45
